Time;durP1;ratioP1;P1;durP2;ratioP2;P2;SDS_P1;SDS_P2;PMS_P1;PMS_P2;Temp;Humidity;BMP_temperature;BMP_pressure;BME280_temperature;BME280_humidity;BME280_pressure;Samples;Min_cycle;Max_cycle;Signal;HPM_P1;HPM_P2
2023/10/27 00:00:21;;;;;;;25.83;4.40;;;29.60;44.40;;;;;;5049871;28;20065;-60
2023/10/27 00:02:47;;;;;;;31.60;4.85;;;29.60;43.70;;;;;;5049164;28;20083;-58
2023/10/27 00:05:14;;;;;;;33.05;5.53;;;29.50;43.20;;;;;;5048857;28;20050;-64
2023/10/27 00:07:40;;;;;;;32.40;4.50;;;29.50;44.00;;;;;;5049783;28;20642;-56
2023/10/27 00:10:07;;;;;;;22.35;4.70;;;29.40;43.80;;;;;;5049596;28;20542;-56
2023/10/27 00:12:34;;;;;;;27.50;4.70;;;29.30;44.10;;;;;;5046353;28;20054;-54
2023/10/27 00:15:00;;;;;;;26.55;5.90;;;29.30;44.40;;;;;;5049910;28;20159;-59
2023/10/27 00:17:27;;;;;;;31.15;5.03;;;29.30;45.50;;;;;;5049116;28;20548;-59
2023/10/27 00:19:53;;;;;;;25.73;4.40;;;29.20;44.20;;;;;;5048706;28;20064;-61
2023/10/27 00:22:20;;;;;;;19.70;4.40;;;29.10;44.00;;;;;;5050093;28;20094;-58
2023/10/27 00:24:46;;;;;;;22.23;4.13;;;29.00;44.80;;;;;;5048800;28;20100;-55
2023/10/27 00:27:12;;;;;;;28.92;4.55;;;28.90;45.80;;;;;;5048867;28;20501;-59
2023/10/27 00:29:39;;;;;;;22.83;4.25;;;28.80;45.30;;;;;;5048356;28;20532;-59
2023/10/27 00:32:06;;;;;;;19.35;4.90;;;28.70;45.40;;;;;;5049315;28;20520;-59
2023/10/27 00:34:32;;;;;;;22.40;4.82;;;28.70;46.10;;;;;;5049253;28;20529;-56
2023/10/27 00:36:59;;;;;;;31.40;4.80;;;28.60;46.80;;;;;;5048884;28;20441;-59
2023/10/27 00:39:25;;;;;;;22.00;5.03;;;28.40;47.40;;;;;;5047781;28;20063;-60
2023/10/27 00:41:51;;;;;;;24.92;4.03;;;28.30;47.40;;;;;;5047972;28;20132;-56
2023/10/27 00:44:18;;;;;;;19.70;3.78;;;28.20;47.30;;;;;;5048714;28;20076;-56
2023/10/27 00:46:45;;;;;;;19.02;4.03;;;28.10;47.60;;;;;;5048695;28;20216;-59
2023/10/27 00:49:12;;;;;;;23.38;4.53;;;28.00;48.20;;;;;;5049290;28;20114;-57
2023/10/27 00:51:39;;;;;;;23.08;4.03;;;27.80;47.80;;;;;;5047026;28;20413;-58
2023/10/27 00:54:10;;;;;;;36.35;4.93;;;27.70;47.70;;;;;;5046970;28;20093;-59
2023/10/27 00:56:37;;;;;;;27.30;4.80;;;27.70;48.20;;;;;;5049309;28;20088;-59
2023/10/27 00:59:03;;;;;;;29.95;5.28;;;27.60;48.40;;;;;;5048181;28;20073;-59
2023/10/27 01:01:31;;;;;;;40.05;5.53;;;27.50;48.70;;;;;;5050167;28;20069;-60
2023/10/27 01:03:57;;;;;;;26.95;4.88;;;27.40;48.60;;;;;;5050356;28;20059;-56
2023/10/27 01:06:24;;;;;;;23.90;4.38;;;27.30;48.40;;;;;;5047061;28;20060;-56
2023/10/27 01:08:51;;;;;;;28.38;4.03;;;27.20;48.70;;;;;;5047930;28;20622;-59
2023/10/27 01:11:18;;;;;;;27.58;4.25;;;27.10;48.60;;;;;;5049018;28;20542;-56
2023/10/27 01:13:45;;;;;;;30.00;4.60;;;27.10;48.60;;;;;;5048669;28;20067;-58
2023/10/27 01:16:11;;;;;;;30.40;5.97;;;27.10;48.70;;;;;;5047538;28;20064;-58
2023/10/27 01:18:38;;;;;;;28.17;5.38;;;27.10;48.60;;;;;;5047100;28;20082;-54
2023/10/27 01:21:04;;;;;;;37.08;5.75;;;27.00;48.50;;;;;;5048719;28;20075;-56
2023/10/27 01:23:31;;;;;;;25.33;5.43;;;27.00;48.60;;;;;;5047442;28;20075;-55
2023/10/27 01:25:57;;;;;;;31.73;5.50;;;26.90;49.10;;;;;;5047394;28;20075;-58
2023/10/27 01:28:24;;;;;;;39.45;7.20;;;26.90;49.20;;;;;;5054990;28;20147;-56
2023/10/27 01:30:50;;;;;;;47.67;7.97;;;26.90;49.90;;;;;;5059896;28;20081;-55
2023/10/27 01:33:17;;;;;;;35.75;7.65;;;26.80;50.30;;;;;;5047417;28;20067;-56
2023/10/27 01:35:43;;;;;;;36.53;5.93;;;26.70;51.00;;;;;;5046679;28;20070;-54
2023/10/27 01:38:10;;;;;;;39.65;5.40;;;26.70;52.00;;;;;;5045783;28;20075;-57
2023/10/27 01:40:36;;;;;;;30.70;5.32;;;26.60;52.40;;;;;;5047299;28;20553;-60
2023/10/27 01:43:03;;;;;;;27.92;4.95;;;26.50;52.70;;;;;;5046314;28;20464;-60
2023/10/27 01:45:29;;;;;;;36.53;6.30;;;26.50;53.20;;;;;;5047832;28;20091;-63
2023/10/27 01:47:56;;;;;;;33.25;6.20;;;26.40;53.40;;;;;;5046729;28;20570;-62
2023/10/27 01:50:22;;;;;;;27.50;5.63;;;26.40;53.60;;;;;;5062871;28;20126;-62
2023/10/27 01:52:48;;;;;;;27.10;5.38;;;26.30;53.70;;;;;;5047057;28;20170;-61
2023/10/27 01:55:15;;;;;;;34.15;6.45;;;26.20;54.40;;;;;;5045656;28;20072;-59
2023/10/27 01:57:41;;;;;;;33.58;5.80;;;26.20;54.20;;;;;;5047592;28;20078;-58
2023/10/27 02:00:09;;;;;;;27.50;5.75;;;26.10;55.40;;;;;;5054407;28;20135;-58
2023/10/27 02:02:36;;;;;;;32.35;5.80;;;26.10;54.70;;;;;;5057885;28;20082;-61
2023/10/27 02:05:07;;;;;;;33.17;6.28;;;26.00;55.20;;;;;;5043555;28;20090;-60
2023/10/27 02:07:34;;;;;;;32.25;5.63;;;25.90;55.10;;;;;;5044975;28;20090;-62
2023/10/27 02:10:00;;;;;;;34.50;5.90;;;25.80;55.00;;;;;;5048085;28;20093;-60
2023/10/27 02:12:27;;;;;;;35.22;6.00;;;25.80;55.40;;;;;;5047452;28;20083;-61
2023/10/27 02:14:54;;;;;;;36.63;6.88;;;25.80;55.60;;;;;;5046498;28;20081;-59
2023/10/27 02:17:20;;;;;;;35.08;6.18;;;25.70;55.90;;;;;;5046929;28;20124;-59
2023/10/27 02:19:47;;;;;;;39.42;6.43;;;25.60;56.20;;;;;;5045612;28;20116;-60
2023/10/27 02:22:14;;;;;;;46.65;7.18;;;25.60;56.70;;;;;;5046798;28;20076;-61
2023/10/27 02:24:41;;;;;;;38.58;6.25;;;25.50;56.50;;;;;;5046466;28;20083;-59
2023/10/27 02:27:07;;;;;;;54.85;6.93;;;25.50;56.80;;;;;;5046435;28;20082;-58
2023/10/27 02:29:34;;;;;;;44.38;6.68;;;25.40;56.60;;;;;;5047382;28;20098;-59
2023/10/27 02:32:00;;;;;;;43.80;7.53;;;25.40;56.60;;;;;;5045987;28;20071;-58
2023/10/27 02:34:27;;;;;;;51.15;8.15;;;25.30;56.20;;;;;;5046741;28;20079;-59
2023/10/27 02:36:53;;;;;;;40.67;8.25;;;25.30;56.10;;;;;;5046455;28;20557;-59
2023/10/27 02:39:20;;;;;;;52.47;10.60;;;25.20;56.40;;;;;;5046105;28;20090;-63
2023/10/27 02:41:48;;;;;;;57.60;10.75;;;25.20;56.30;;;;;;5045609;28;20111;-59
2023/10/27 02:44:15;;;;;;;55.53;11.20;;;25.20;56.10;;;;;;5046414;28;20082;-59
2023/10/27 02:46:41;;;;;;;51.97;9.93;;;25.20;56.10;;;;;;5046913;28;20127;-58
2023/10/27 02:49:08;;;;;;;58.65;11.32;;;25.10;56.10;;;;;;5050879;28;20086;-57
2023/10/27 02:51:34;;;;;;;49.90;10.85;;;25.10;56.00;;;;;;5047232;28;20073;-59
2023/10/27 02:54:02;;;;;;;44.45;9.80;;;25.00;56.30;;;;;;5045454;28;20423;-57
2023/10/27 02:56:28;;;;;;;50.90;10.55;;;25.00;56.30;;;;;;5046534;28;20086;-59
2023/10/27 02:58:55;;;;;;;42.35;10.48;;;24.90;56.20;;;;;;5046082;28;20075;-57
2023/10/27 03:01:21;;;;;;;36.42;10.13;;;24.90;57.30;;;;;;5045849;28;20129;-61
2023/10/27 03:03:48;;;;;;;42.83;10.90;;;24.90;57.60;;;;;;5044115;28;20086;-61
2023/10/27 03:06:14;;;;;;;40.30;10.98;;;24.90;57.30;;;;;;5046105;28;20153;-61
2023/10/27 03:08:42;;;;;;;41.92;10.52;;;24.90;57.10;;;;;;5047869;28;20080;-61
2023/10/27 03:11:08;;;;;;;46.58;10.18;;;24.80;56.90;;;;;;5057464;28;20565;-62
2023/10/27 03:13:35;;;;;;;49.40;9.82;;;24.80;57.30;;;;;;5050084;28;20111;-61
2023/10/27 03:16:03;;;;;;;50.35;10.57;;;24.70;57.20;;;;;;5044995;28;20067;-60
2023/10/27 03:18:29;;;;;;;51.05;10.23;;;24.70;57.40;;;;;;5043986;28;20071;-62
2023/10/27 03:21:00;;;;;;;41.88;9.88;;;24.70;57.90;;;;;;5046132;28;20079;-62
2023/10/27 03:23:28;;;;;;;56.15;12.10;;;24.60;57.40;;;;;;5045845;28;20083;-58
2023/10/27 03:25:54;;;;;;;67.03;12.77;;;24.60;57.30;;;;;;5046120;28;20075;-60
2023/10/27 03:28:21;;;;;;;64.63;13.20;;;24.50;57.40;;;;;;5046464;28;20077;-59
2023/10/27 03:30:49;;;;;;;75.47;13.75;;;24.50;57.90;;;;;;5045245;28;20097;-60
2023/10/27 03:33:17;;;;;;;64.60;15.00;;;24.60;58.50;;;;;;5046332;28;20166;-61
2023/10/27 03:35:45;;;;;;;71.45;16.02;;;24.50;57.90;;;;;;5045939;28;20083;-61
2023/10/27 03:38:12;;;;;;;76.47;17.08;;;24.50;57.80;;;;;;5051154;28;20075;-61
2023/10/27 03:40:39;;;;;;;75.15;16.55;;;24.50;58.00;;;;;;5057050;28;20494;-59
2023/10/27 03:43:06;;;;;;;69.80;16.80;;;24.50;58.00;;;;;;5045848;28;20083;-60
2023/10/27 03:45:34;;;;;;;61.83;16.08;;;24.50;59.00;;;;;;5046026;28;20083;-60
2023/10/27 03:48:02;;;;;;;69.40;17.45;;;24.40;58.70;;;;;;5060741;28;20103;-63
2023/10/27 03:50:28;;;;;;;69.28;16.05;;;24.30;58.60;;;;;;5049052;28;20184;-62
2023/10/27 03:52:55;;;;;;;61.97;17.77;;;24.30;58.50;;;;;;5045718;28;20103;-64
2023/10/27 03:55:21;;;;;;;60.55;16.77;;;24.20;59.00;;;;;;5046080;28;20075;-63
2023/10/27 03:57:48;;;;;;;75.75;15.38;;;24.20;59.80;;;;;;5051615;28;20078;-59
2023/10/27 04:00:15;;;;;;;62.22;14.93;;;24.10;59.10;;;;;;5058322;28;20079;-64
2023/10/27 04:02:43;;;;;;;65.97;17.00;;;24.10;59.00;;;;;;5044601;28;20126;-63
2023/10/27 04:05:10;;;;;;;79.68;16.75;;;24.10;59.40;;;;;;5054105;28;20108;-60
2023/10/27 04:07:36;;;;;;;75.50;16.38;;;24.10;59.60;;;;;;5045853;28;20163;-61
2023/10/27 04:10:03;;;;;;;83.15;16.33;;;24.10;59.60;;;;;;5045754;28;20145;-58
2023/10/27 04:12:29;;;;;;;62.30;14.70;;;24.00;59.40;;;;;;5045149;28;20075;-59
2023/10/27 04:14:55;;;;;;;71.68;14.80;;;24.00;59.80;;;;;;5044596;28;20101;-61
2023/10/27 04:17:22;;;;;;;86.90;16.02;;;23.90;59.70;;;;;;5045763;28;20170;-61
2023/10/27 04:19:50;;;;;;;69.50;15.05;;;23.90;59.60;;;;;;5045429;28;20137;-60
2023/10/27 04:22:16;;;;;;;83.63;15.32;;;23.90;59.70;;;;;;5046420;28;20595;-63
2023/10/27 04:24:43;;;;;;;64.45;14.52;;;23.90;60.10;;;;;;5044460;28;20088;-60
2023/10/27 04:27:09;;;;;;;75.45;14.30;;;23.90;60.00;;;;;;5049739;28;20245;-62
2023/10/27 04:29:36;;;;;;;92.25;14.77;;;23.90;60.10;;;;;;5047681;28;20096;-62
2023/10/27 04:32:04;;;;;;;76.68;14.20;;;23.80;60.80;;;;;;5047810;28;20086;-61
2023/10/27 04:34:30;;;;;;;68.40;13.65;;;23.80;60.50;;;;;;5048372;28;20436;-61
2023/10/27 04:36:57;;;;;;;83.95;14.23;;;23.80;61.20;;;;;;5048129;28;20075;-61
2023/10/27 04:39:23;;;;;;;59.22;12.63;;;23.80;60.80;;;;;;5049047;28;20097;-57
2023/10/27 04:41:49;;;;;;;62.58;11.80;;;23.70;60.80;;;;;;5047713;28;20163;-59
2023/10/27 04:44:22;;;;;;;52.45;11.73;;;23.70;60.50;;;;;;5048521;28;20080;-59
2023/10/27 04:46:48;;;;;;;66.57;11.82;;;23.60;61.00;;;;;;5049689;28;20560;-60
2023/10/27 04:49:15;;;;;;;59.75;12.05;;;23.60;61.60;;;;;;5053177;28;20125;-57
2023/10/27 04:51:42;;;;;;;54.63;11.73;;;23.60;61.80;;;;;;5053089;28;20137;-58
2023/10/27 04:54:08;;;;;;;82.75;13.48;;;23.60;61.80;;;;;;5048714;28;20137;-58
2023/10/27 04:56:35;;;;;;;57.95;13.23;;;23.60;61.90;;;;;;5048621;28;20078;-58
2023/10/27 04:59:01;;;;;;;62.55;12.70;;;23.60;62.20;;;;;;5047877;28;20082;-58
2023/10/27 05:01:28;;;;;;;54.75;13.85;;;23.50;62.40;;;;;;5047218;28;20075;-59
2023/10/27 05:03:54;;;;;;;50.05;13.00;;;23.50;62.40;;;;;;5048689;28;20570;-59
2023/10/27 05:06:21;;;;;;;58.45;13.15;;;23.50;62.60;;;;;;5047990;28;20118;-59
2023/10/27 05:08:47;;;;;;;105.30;17.10;;;23.40;62.60;;;;;;5047854;28;20071;-55
2023/10/27 05:11:14;;;;;;;69.00;18.10;;;23.40;62.80;;;;;;5047582;28;20662;-59
2023/10/27 05:13:40;;;;;;;54.55;14.23;;;23.40;64.10;;;;;;5047586;28;20091;-60
2023/10/27 05:16:07;;;;;;;68.63;14.27;;;23.40;64.00;;;;;;5048504;28;20080;-59
2023/10/27 05:18:33;;;;;;;52.00;13.98;;;23.40;64.60;;;;;;5047941;28;20122;-60
2023/10/27 05:21:00;;;;;;;55.45;13.95;;;23.30;65.00;;;;;;5059996;28;20075;-59
2023/10/27 05:23:26;;;;;;;49.75;13.80;;;23.30;65.90;;;;;;5047710;28;20084;-59
2023/10/27 05:25:53;;;;;;;54.47;13.52;;;23.40;66.20;;;;;;5049180;28;20117;-57
2023/10/27 05:28:19;;;;;;;60.72;14.85;;;23.40;66.50;;;;;;5047958;28;20089;-61
2023/10/27 05:30:50;;;;;;;54.45;14.35;;;23.40;67.10;;;;;;5047070;28;20174;-60
2023/10/27 05:33:17;;;;;;;56.67;15.68;;;23.30;67.60;;;;;;5051958;28;20079;-59
2023/10/27 05:35:43;;;;;;;60.55;15.70;;;23.30;69.30;;;;;;5054937;28;20085;-57
2023/10/27 05:38:10;;;;;;;45.47;13.50;;;23.30;71.10;;;;;;5057150;28;20083;-60
2023/10/27 05:40:36;;;;;;;58.15;13.18;;;23.20;72.60;;;;;;5059153;28;20088;-60
2023/10/27 05:43:03;;;;;;;38.50;11.65;;;23.20;74.30;;;;;;5058222;28;20090;-56
2023/10/27 05:45:29;;;;;;;45.45;12.52;;;23.10;75.10;;;;;;5049992;28;20146;-58
2023/10/27 05:47:56;;;;;;;36.03;11.18;;;23.10;76.70;;;;;;5047277;28;20099;-59
2023/10/27 05:50:22;;;;;;;38.40;11.35;;;23.10;77.40;;;;;;5061569;28;20110;-60
2023/10/27 05:52:49;;;;;;;42.70;11.80;;;23.10;78.20;;;;;;5058395;28;20072;-62
2023/10/27 05:55:15;;;;;;;46.25;10.48;;;23.00;78.80;;;;;;5054175;28;20171;-59
2023/10/27 05:57:42;;;;;;;40.80;10.88;;;23.00;79.50;;;;;;5053092;28;20080;-57
2023/10/27 06:00:10;;;;;;;39.58;10.48;;;23.00;80.60;;;;;;5047842;28;20130;-58
2023/10/27 06:02:37;;;;;;;42.60;10.40;;;22.90;81.10;;;;;;5046072;28;20083;-60
2023/10/27 06:05:04;;;;;;;34.58;10.23;;;22.90;81.60;;;;;;5047408;28;20084;-58
2023/10/27 06:07:31;;;;;;;50.47;10.93;;;22.90;82.30;;;;;;5046576;28;20157;-59
2023/10/27 06:09:57;;;;;;;42.47;10.02;;;22.90;83.00;;;;;;5046530;28;20146;-58
2023/10/27 06:12:24;;;;;;;50.70;11.00;;;22.90;83.90;;;;;;5048487;28;20090;-58
2023/10/27 06:14:50;;;;;;;41.35;10.70;;;22.80;84.40;;;;;;5047176;28;20082;-58
2023/10/27 06:17:17;;;;;;;40.00;10.63;;;22.80;85.20;;;;;;5047470;28;20087;-59
2023/10/27 06:19:43;;;;;;;39.53;10.70;;;22.80;85.80;;;;;;5046639;28;20085;-57
2023/10/27 06:22:10;;;;;;;39.65;10.80;;;22.70;86.70;;;;;;5047466;28;20125;-58
2023/10/27 06:24:36;;;;;;;37.72;10.73;;;22.70;86.70;;;;;;5047045;28;20138;-60
2023/10/27 06:27:05;;;;;;;35.05;10.02;;;22.70;86.90;;;;;;5045963;28;20091;-60
2023/10/27 06:29:31;;;;;;;33.65;9.70;;;22.60;87.00;;;;;;5049460;28;20108;-58
2023/10/27 06:31:58;;;;;;;47.53;11.23;;;22.70;87.10;;;;;;5046758;28;20448;-61
2023/10/27 06:34:24;;;;;;;41.83;10.93;;;22.70;87.40;;;;;;5047884;28;20110;-59
2023/10/27 06:36:51;;;;;;;40.72;10.55;;;22.70;88.20;;;;;;5047346;28;20079;-62
2023/10/27 06:39:17;;;;;;;39.33;10.57;;;22.60;89.00;;;;;;5046622;28;20584;-56
2023/10/27 06:41:46;;;;;;;33.88;9.73;;;22.50;89.20;;;;;;5047040;28;20540;-61
2023/10/27 06:44:12;;;;;;;31.45;10.48;;;22.50;89.50;;;;;;5046475;28;20108;-58
2023/10/27 06:46:40;;;;;;;37.90;9.98;;;22.50;89.40;;;;;;5045585;28;20114;-56
2023/10/27 06:49:06;;;;;;;42.33;10.85;;;22.50;89.60;;;;;;5047285;28;20112;-57
2023/10/27 06:51:33;;;;;;;40.08;11.43;;;22.40;89.60;;;;;;5046467;28;20189;-59
2023/10/27 06:53:59;;;;;;;44.60;11.57;;;22.40;90.30;;;;;;5045398;28;20080;-59
2023/10/27 06:56:26;;;;;;;36.85;11.82;;;22.40;90.60;;;;;;5045849;28;20562;-58
2023/10/27 06:58:52;;;;;;;47.92;11.93;;;22.40;90.70;;;;;;5045107;28;20076;-59
2023/10/27 07:01:18;;;;;;;41.67;10.93;;;22.30;90.60;;;;;;5046269;28;20178;-58
2023/10/27 07:03:45;;;;;;;46.20;10.80;;;22.30;90.50;;;;;;5045153;28;20134;-58
2023/10/27 07:06:12;;;;;;;49.63;12.20;;;22.30;90.50;;;;;;5043500;28;20495;-59
2023/10/27 07:08:39;;;;;;;46.80;12.10;;;22.20;90.40;;;;;;5046652;28;20540;-59
2023/10/27 07:11:05;;;;;;;48.08;12.32;;;22.20;90.30;;;;;;5045269;28;20099;-57
2023/10/27 07:13:32;;;;;;;51.38;12.10;;;22.20;90.50;;;;;;5044606;28;20087;-58
2023/10/27 07:15:58;;;;;;;50.92;12.20;;;22.30;90.70;;;;;;5045486;28;20084;-57
2023/10/27 07:18:25;;;;;;;54.20;12.77;;;22.30;90.20;;;;;;5044726;28;20077;-59
2023/10/27 07:20:53;;;;;;;57.08;13.25;;;22.20;88.40;;;;;;5045659;28;20099;-57
2023/10/27 07:23:19;;;;;;;48.83;13.13;;;22.20;87.90;;;;;;5045301;28;20085;-57
2023/10/27 07:25:46;;;;;;;63.65;13.98;;;22.20;86.80;;;;;;5044991;28;20887;-62
2023/10/27 07:28:13;;;;;;;52.00;12.52;;;22.10;84.90;;;;;;5044952;28;20111;-60
2023/10/27 07:30:39;;;;;;;62.65;12.23;;;22.10;83.50;;;;;;5046055;28;20096;-60
2023/10/27 07:33:06;;;;;;;48.97;12.32;;;22.10;83.30;;;;;;5044952;28;20410;-59
2023/10/27 07:35:32;;;;;;;49.47;11.10;;;22.10;83.00;;;;;;5045653;28;20091;-59
2023/10/27 07:37:59;;;;;;;42.63;11.23;;;22.00;83.10;;;;;;5047509;28;20076;-59
2023/10/27 07:40:26;;;;;;;63.60;12.55;;;22.00;83.10;;;;;;5044930;28;20460;-56
2023/10/27 07:42:57;;;;;;;43.80;10.48;;;22.00;83.00;;;;;;5044372;28;20072;-58
2023/10/27 07:45:25;;;;;;;45.70;10.10;;;22.00;82.80;;;;;;5044380;28;20447;-57
2023/10/27 07:47:51;;;;;;;49.90;9.98;;;21.90;82.70;;;;;;5044494;28;20104;-60
2023/10/27 07:50:18;;;;;;;49.80;9.90;;;21.90;82.70;;;;;;5047150;28;20104;-58
2023/10/27 07:52:45;;;;;;;42.42;9.48;;;21.90;83.10;;;;;;5045507;28;20169;-59
2023/10/27 07:55:12;;;;;;;44.63;9.80;;;21.90;83.50;;;;;;5044111;28;20076;-58
2023/10/27 07:57:38;;;;;;;40.53;9.82;;;21.80;83.30;;;;;;5045146;28;20168;-59
2023/10/27 08:00:09;;;;;;;47.85;10.13;;;21.80;84.40;;;;;;5046641;28;20089;-60
2023/10/27 08:02:38;;;;;;;38.33;9.80;;;21.80;83.60;;;;;;5047983;28;20080;-58
2023/10/27 08:05:06;;;;;;;50.70;10.55;;;21.70;83.90;;;;;;5047794;28;20443;-61
2023/10/27 08:07:32;;;;;;;40.42;10.15;;;21.70;84.10;;;;;;5048153;28;20137;-60
2023/10/27 08:09:59;;;;;;;43.40;10.00;;;21.70;84.10;;;;;;5050343;28;20092;-57
2023/10/27 08:12:25;;;;;;;48.83;10.40;;;21.70;84.20;;;;;;5047946;28;20167;-56
2023/10/27 08:14:52;;;;;;;57.72;11.38;;;21.70;84.60;;;;;;5048321;28;20496;-61
2023/10/27 08:17:18;;;;;;;51.85;10.73;;;21.50;84.70;;;;;;5047819;28;20580;-59
2023/10/27 08:19:45;;;;;;;56.92;12.32;;;21.50;85.20;;;;;;5050036;28;20089;-58
2023/10/27 08:22:11;;;;;;;44.83;12.55;;;21.50;85.20;;;;;;5048706;28;20080;-61
2023/10/27 08:24:38;;;;;;;48.83;13.98;;;21.60;85.40;;;;;;5047709;28;20092;-60
2023/10/27 08:27:04;;;;;;;56.83;13.98;;;21.60;85.60;;;;;;5048046;28;20081;-60
2023/10/27 08:29:31;;;;;;;54.13;14.18;;;21.60;86.00;;;;;;5047798;28;20127;-59
2023/10/27 08:31:57;;;;;;;52.45;13.80;;;21.50;86.00;;;;;;5047368;28;20083;-58
2023/10/27 08:34:24;;;;;;;58.47;15.23;;;21.50;86.00;;;;;;5048171;28;20080;-56
2023/10/27 08:36:50;;;;;;;43.67;14.10;;;21.50;86.30;;;;;;5047211;28;20100;-62
2023/10/27 08:39:19;;;;;;;54.92;14.30;;;21.50;87.00;;;;;;5053178;28;20481;-59
2023/10/27 08:41:46;;;;;;;60.65;15.60;;;21.40;87.10;;;;;;5049360;28;20087;-63
2023/10/27 08:44:13;;;;;;;58.10;15.35;;;21.40;86.90;;;;;;5045767;28;20084;-60
2023/10/27 08:46:40;;;;;;;59.60;15.80;;;21.40;87.20;;;;;;5047926;28;20100;-57
2023/10/27 08:49:08;;;;;;;49.20;15.68;;;21.30;87.70;;;;;;5050174;28;20095;-59
2023/10/27 08:51:35;;;;;;;54.58;15.52;;;21.20;88.30;;;;;;5047152;28;20471;-58
2023/10/27 08:54:04;;;;;;;56.95;17.77;;;21.20;88.70;;;;;;5047863;28;20079;-57
2023/10/27 08:56:31;;;;;;;66.22;24.67;;;21.20;88.70;;;;;;5048451;28;20537;-59
2023/10/27 08:58:58;;;;;;;62.00;26.05;;;21.10;89.20;;;;;;5048346;28;20072;-58
2023/10/27 09:01:26;;;;;;;86.63;29.85;;;21.10;89.60;;;;;;5049567;28;20584;-61
2023/10/27 09:04:12;;;;;;;71.07;29.05;;;21.00;89.90;;;;;;5048464;28;20104;-57
2023/10/27 09:06:39;;;;;;;65.53;24.92;;;21.00;90.20;;;;;;5045260;28;20440;-59
2023/10/27 09:09:09;;;;;;;74.38;24.48;;;21.00;90.20;;;;;;5047856;28;20084;-59
2023/10/27 09:11:44;;;;;;;69.20;22.52;;;21.00;90.50;;;;;;5045442;28;20096;-62
2023/10/27 09:14:26;;;;;;;66.32;20.10;;;21.00;90.90;;;;;;5047375;28;20076;-58
2023/10/27 09:17:05;;;;;;;70.40;21.10;;;21.00;91.20;;;;;;5047162;28;20448;-57
2023/10/27 09:19:32;;;;;;;64.50;19.15;;;21.00;91.90;;;;;;5050522;28;20452;-58
2023/10/27 09:21:59;;;;;;;63.63;18.67;;;21.00;92.90;;;;;;5047983;28;20080;-59
2023/10/27 09:24:27;;;;;;;65.45;18.20;;;21.00;93.30;;;;;;5046414;28;20087;-58
2023/10/27 09:26:56;;;;;;;56.40;18.00;;;21.00;93.90;;;;;;5047297;28;20116;-58
2023/10/27 09:29:23;;;;;;;54.22;18.17;;;21.00;94.70;;;;;;5047654;28;20567;-58
2023/10/27 09:31:51;;;;;;;52.53;16.63;;;20.90;95.20;;;;;;5048364;28;20444;-64
2023/10/27 09:34:21;;;;;;;55.22;18.02;;;20.90;95.70;;;;;;5047120;28;20080;-59
2023/10/27 09:36:51;;;;;;;55.70;17.90;;;21.00;96.10;;;;;;5051676;28;20119;-60
2023/10/27 09:39:20;;;;;;;49.38;16.80;;;20.90;96.40;;;;;;5050141;28;20455;-62
2023/10/27 09:41:53;;;;;;;48.95;17.42;;;20.90;96.20;;;;;;5048571;28;20159;-57
2023/10/27 09:44:23;;;;;;;55.55;17.88;;;20.80;96.40;;;;;;5045063;28;20583;-63
2023/10/27 09:46:52;;;;;;;58.80;18.23;;;20.80;96.50;;;;;;5046369;28;20100;-58
2023/10/27 09:49:36;;;;;;;50.85;16.98;;;20.70;96.60;;;;;;5046879;28;20088;-56
2023/10/27 09:52:12;;;;;;;51.35;17.65;;;20.70;97.00;;;;;;5049127;28;20079;-59
2023/10/27 09:54:41;;;;;;;51.88;17.02;;;20.80;97.50;;;;;;5047112;28;20086;-59
2023/10/27 09:57:10;;;;;;;43.67;17.17;;;20.70;97.50;;;;;;5046677;28;20077;-60
2023/10/27 09:59:36;;;;;;;64.95;18.95;;;20.80;97.60;;;;;;5044957;28;20081;-60
2023/10/27 10:02:05;;;;;;;48.58;17.58;;;20.70;97.80;;;;;;5046667;28;20138;-60
2023/10/27 10:04:50;;;;;;;57.80;17.92;;;20.70;97.70;;;;;;5045748;28;20144;-54
2023/10/27 10:08:06;;;;;;;57.22;17.70;;;20.80;97.80;;;;;;5045868;28;20100;-53
2023/10/27 10:10:34;;;;;;;50.65;17.45;;;20.80;97.90;;;;;;5045284;28;20107;-56
2023/10/27 10:13:02;;;;;;;50.35;17.48;;;20.70;98.10;;;;;;5044530;28;20095;-56
2023/10/27 10:15:31;;;;;;;51.13;18.38;;;20.70;98.60;;;;;;5045722;28;20080;-62
2023/10/27 10:17:58;;;;;;;49.70;17.42;;;20.70;98.70;;;;;;5046713;28;20080;-58
2023/10/27 10:20:49;;;;;;;52.15;18.70;;;20.80;99.00;;;;;;5051624;28;20114;-61
2023/10/27 10:23:17;;;;;;;56.20;18.40;;;20.80;99.00;;;;;;5041568;28;20084;-56
2023/10/27 10:25:57;;;;;;;43.40;18.23;;;20.70;99.10;;;;;;5046608;28;20218;-59
2023/10/27 10:28:29;;;;;;;59.78;17.83;;;20.70;99.50;;;;;;5045907;28;20544;-57
2023/10/27 10:31:09;;;;;;;58.88;18.95;;;20.70;99.70;;;;;;5044781;28;20092;-62
2023/10/27 10:33:37;;;;;;;56.47;19.52;;;20.60;99.80;;;;;;5044554;28;20102;-57
2023/10/27 10:36:22;;;;;;;48.45;19.48;;;20.60;99.90;;;;;;5044902;28;20082;-58
2023/10/27 10:38:59;;;;;;;52.80;20.60;;;20.60;99.90;;;;;;5044676;28;20504;-56
2023/10/27 10:41:43;;;;;;;63.22;19.98;;;20.60;99.90;;;;;;5045255;28;20084;-59
2023/10/27 10:44:12;;;;;;;63.42;21.02;;;20.50;99.90;;;;;;5045010;28;20076;-58
2023/10/27 10:46:39;;;;;;;68.38;21.10;;;20.60;99.90;;;;;;5045924;28;20111;-58
2023/10/27 10:49:05;;;;;;;73.63;22.40;;;20.50;99.90;;;;;;5047306;28;20611;-57
2023/10/27 10:51:37;;;;;;;84.00;23.25;;;20.50;99.90;;;;;;5047078;28;20187;-57
2023/10/27 10:54:11;;;;;;;80.00;23.13;;;20.50;99.90;;;;;;5047866;28;20080;-58
2023/10/27 10:56:38;;;;;;;75.25;23.08;;;20.60;99.90;;;;;;5045778;28;20080;-59
2023/10/27 10:59:04;;;;;;;75.13;25.35;;;20.50;99.90;;;;;;5044891;28;20112;-61
2023/10/27 11:01:31;;;;;;;73.28;25.50;;;20.50;99.90;;;;;;5045656;28;20084;-59
2023/10/27 11:03:58;;;;;;;84.45;25.92;;;20.50;99.90;;;;;;5045130;28;20157;-62
2023/10/27 11:06:27;;;;;;;84.43;25.60;;;20.40;99.90;;;;;;5047594;28;20141;-58
2023/10/27 11:08:53;;;;;;;87.15;27.05;;;20.40;99.90;;;;;;5045062;28;20452;-59
2023/10/27 11:11:21;;;;;;;73.88;26.95;;;20.40;99.90;;;;;;5046102;28;20104;-59
2023/10/27 11:13:53;;;;;;;89.13;30.17;;;20.30;99.90;;;;;;5045552;28;20087;-59
2023/10/27 11:16:24;;;;;;;89.88;29.63;;;20.30;99.90;;;;;;5047051;28;20134;-59
2023/10/27 11:19:02;;;;;;;96.72;31.02;;;20.30;99.90;;;;;;5045510;28;20104;-58
2023/10/27 11:21:34;;;;;;;83.50;30.20;;;20.20;99.90;;;;;;5045069;28;20092;-55
2023/10/27 11:24:07;;;;;;;86.32;28.67;;;20.20;99.90;;;;;;5044225;28;20091;-55
2023/10/27 11:26:44;;;;;;;84.03;32.13;;;20.20;99.90;;;;;;5046698;28;20083;-59
2023/10/27 11:29:11;;;;;;;90.53;32.53;;;20.30;99.90;;;;;;5045937;28;20180;-59
2023/10/27 11:31:42;;;;;;;85.28;32.47;;;20.30;99.90;;;;;;5047111;28;20093;-58
2023/10/27 11:34:13;;;;;;;84.13;32.10;;;20.20;99.90;;;;;;5044680;28;20452;-62
2023/10/27 11:36:42;;;;;;;85.18;30.02;;;20.20;99.90;;;;;;5047714;28;20099;-58
2023/10/27 11:39:16;;;;;;;85.63;30.92;;;20.10;99.90;;;;;;5048284;28;20505;-59
2023/10/27 11:42:02;;;;;;;99.47;33.35;;;20.10;99.90;;;;;;5049350;28;20525;-56
2023/10/27 11:44:35;;;;;;;96.35;34.70;;;20.10;99.90;;;;;;5049605;28;20513;-60
2023/10/27 11:47:02;;;;;;;114.25;37.20;;;20.00;99.90;;;;;;5048202;28;20100;-60
2023/10/27 11:49:30;;;;;;;97.45;35.63;;;20.00;99.90;;;;;;5051179;28;20433;-56
2023/10/27 11:51:57;;;;;;;95.03;36.30;;;20.00;99.90;;;;;;5047656;28;20141;-57
2023/10/27 11:54:25;;;;;;;112.18;36.65;;;20.00;99.90;;;;;;5051407;28;20099;-59
2023/10/27 11:56:52;;;;;;;104.50;37.83;;;20.00;99.90;;;;;;5049047;28;20109;-55
2023/10/27 11:59:20;;;;;;;111.22;38.55;;;20.00;99.90;;;;;;5046888;28;20117;-61
2023/10/27 12:01:46;;;;;;;95.45;36.08;;;20.00;99.90;;;;;;5047427;28;20490;-58
2023/10/27 12:04:13;;;;;;;94.75;37.65;;;20.00;99.90;;;;;;5047741;28;20978;-58
2023/10/27 12:06:40;;;;;;;103.07;39.03;;;19.90;99.90;;;;;;5048169;28;20525;-59
2023/10/27 12:09:08;;;;;;;92.95;36.33;;;19.90;99.90;;;;;;5048852;28;20092;-55
2023/10/27 12:11:37;;;;;;;106.20;37.78;;;19.80;99.90;;;;;;5046723;28;20096;-61
2023/10/27 12:14:04;;;;;;;89.50;36.30;;;19.80;99.90;;;;;;5050231;28;20080;-60
2023/10/27 12:16:31;;;;;;;103.10;38.38;;;19.70;99.90;;;;;;5048138;28;20080;-59
2023/10/27 12:18:58;;;;;;;94.63;39.88;;;19.70;99.90;;;;;;5048475;28;20095;-56
2023/10/27 12:21:28;;;;;;;111.03;42.75;;;19.70;99.90;;;;;;5047615;28;20606;-57
2023/10/27 12:23:55;;;;;;;109.13;42.40;;;19.70;99.90;;;;;;5048164;28;20483;-60
2023/10/27 12:26:22;;;;;;;104.70;43.33;;;19.60;99.90;;;;;;5048118;28;20452;-60
2023/10/27 12:28:48;;;;;;;99.05;43.20;;;19.60;99.90;;;;;;5048219;28;20086;-55
2023/10/27 12:31:16;;;;;;;115.18;47.17;;;19.60;99.90;;;;;;5047907;28;20096;-60